createdAt,value
2019-02-12T00:00:18.104Z,87481.72
2019-02-12T00:02:44.888Z,87481.95
2019-02-12T00:05:12.622Z,87478.89
2019-02-12T00:07:39.606Z,87489.34
2019-02-12T00:10:06.378Z,87485.24
2019-02-12T00:12:33.230Z,87482.73
2019-02-12T00:15:00.023Z,87487.14
2019-02-12T00:17:26.840Z,87494.75
2019-02-12T00:19:53.774Z,87485.54
2019-02-12T00:22:20.555Z,87486.76
2019-02-12T00:24:47.345Z,87502.91
2019-02-12T00:27:14.259Z,87492.16
2019-02-12T00:29:41.043Z,87500.00
2019-02-12T00:32:07.841Z,87509.33
2019-02-12T00:34:34.779Z,87508.36
2019-02-12T00:37:01.564Z,87511.02
2019-02-12T00:39:28.352Z,87508.95
2019-02-12T00:41:55.210Z,87510.18
2019-02-12T00:44:21.982Z,87506.15
2019-02-12T00:46:48.761Z,87494.95
2019-02-12T00:49:15.628Z,87507.13
2019-02-12T00:51:42.417Z,87512.97
2019-02-12T00:54:09.185Z,87516.84
2019-02-12T00:56:36.130Z,87507.41
2019-02-12T00:59:02.931Z,87515.41
2019-02-12T01:01:29.714Z,87511.79
2019-02-12T01:03:56.561Z,87523.89
2019-02-12T01:06:23.349Z,87517.41
2019-02-12T01:08:50.128Z,87501.42
2019-02-12T01:11:16.976Z,87493.87
2019-02-12T01:13:43.763Z,87503.84
2019-02-12T01:16:10.533Z,87500.27
2019-02-12T01:18:37.488Z,87498.59
2019-02-12T01:21:04.273Z,87494.45
2019-02-12T01:23:31.052Z,87504.42
2019-02-12T01:25:57.915Z,87504.59
2019-02-12T01:28:24.702Z,87491.27
2019-02-12T01:30:51.494Z,87494.17
2019-02-12T01:33:18.355Z,87499.04
2019-02-12T01:35:45.127Z,87494.63
2019-02-12T01:38:11.912Z,87508.03
2019-02-12T01:40:38.780Z,87510.17
2019-02-12T01:43:05.550Z,87504.41
2019-02-12T01:45:32.326Z,87503.84
2019-02-12T01:47:59.234Z,87511.22
2019-02-12T01:50:26.018Z,87504.09
2019-02-12T01:52:52.801Z,87514.97
2019-02-12T01:55:19.656Z,87524.84
2019-02-12T01:57:46.434Z,87524.20
2019-02-12T02:00:13.210Z,87529.64
2019-02-12T02:02:40.223Z,87541.88
2019-02-12T02:05:08.524Z,87527.91
2019-02-12T02:07:35.320Z,87541.61
2019-02-12T02:10:02.352Z,87538.34
2019-02-12T02:12:29.149Z,87535.54
2019-02-12T02:14:55.929Z,87539.66
2019-02-12T02:17:22.797Z,87542.92
2019-02-12T02:19:49.619Z,87544.59
2019-02-12T02:22:21.486Z,87539.02
2019-02-12T02:24:48.935Z,87538.17
2019-02-12T02:27:15.730Z,87546.38
2019-02-12T02:29:42.518Z,87546.13
2019-02-12T02:32:09.380Z,87545.52
2019-02-12T02:34:36.165Z,87535.22
2019-02-12T02:37:02.946Z,87541.13
2019-02-12T02:39:29.882Z,87548.77
2019-02-12T02:41:56.663Z,87554.55
2019-02-12T02:44:23.454Z,87556.79
2019-02-12T02:46:50.304Z,87565.71
2019-02-12T02:49:17.099Z,87566.17
2019-02-12T02:51:53.438Z,87569.95
2019-02-12T02:54:12.617Z,87562.31
2019-02-12T02:56:39.400Z,87576.91
2019-02-12T02:59:06.187Z,87574.56
2019-02-12T03:01:33.025Z,87568.74
2019-02-12T03:03:59.811Z,87573.75
2019-02-12T03:06:26.612Z,87564.30
2019-02-12T03:08:53.445Z,87576.09
2019-02-12T03:11:20.227Z,87574.60
2019-02-12T03:13:47.011Z,87580.59
2019-02-12T03:16:13.950Z,87584.05
2019-02-12T03:18:40.757Z,87592.81
2019-02-12T03:21:07.612Z,87602.30
2019-02-12T03:23:34.528Z,87602.45
2019-02-12T03:26:01.294Z,87603.03
2019-02-12T03:28:28.080Z,87604.16
2019-02-12T03:30:54.947Z,87609.94
2019-02-12T03:33:21.747Z,87614.97
2019-02-12T03:35:48.505Z,87621.22
2019-02-12T03:38:15.461Z,87623.37
2019-02-12T03:40:42.255Z,87622.26
2019-02-12T03:43:09.031Z,87612.03
2019-02-12T03:45:35.882Z,87613.51
2019-02-12T03:48:02.676Z,87627.52
2019-02-12T03:50:29.458Z,87626.79
2019-02-12T03:52:56.404Z,87622.79
2019-02-12T03:55:23.184Z,87627.86
2019-02-12T03:57:49.975Z,87627.17
2019-02-12T04:00:16.851Z,87640.88
2019-02-12T04:03:01.083Z,87650.76
2019-02-12T04:05:28.002Z,87658.66
2019-02-12T04:07:54.797Z,87653.45
2019-02-12T04:10:21.577Z,87651.13
2019-02-12T04:12:48.506Z,87658.53
2019-02-12T04:15:15.298Z,87655.66
2019-02-12T04:17:42.121Z,87661.27
2019-02-12T04:20:08.922Z,87675.28
2019-02-12T04:22:35.753Z,87672.18
2019-02-12T04:25:02.653Z,87666.05
2019-02-12T04:27:29.508Z,87662.72
2019-02-12T04:29:56.296Z,87663.17
2019-02-12T04:32:23.079Z,87660.38
2019-02-12T04:34:49.939Z,87666.17
2019-02-12T04:37:16.712Z,87668.35
2019-02-12T04:39:43.510Z,87673.63
2019-02-12T04:42:10.451Z,87682.21
2019-02-12T04:44:37.241Z,87681.66
2019-02-12T04:47:04.061Z,87675.33
2019-02-12T04:49:30.886Z,87680.97
2019-02-12T04:51:57.676Z,87690.02
2019-02-12T04:54:24.463Z,87695.71
2019-02-12T04:56:51.397Z,87698.71
2019-02-12T04:59:18.173Z,87703.36
2019-02-12T05:01:44.963Z,87703.88
2019-02-12T05:04:11.890Z,87704.23
2019-02-12T05:06:38.673Z,87708.89
2019-02-12T05:09:15.424Z,87708.75
2019-02-12T05:11:46.920Z,87710.77
2019-02-12T05:14:13.719Z,87710.59
2019-02-12T05:16:40.649Z,87698.72
2019-02-12T05:19:07.421Z,87701.30
2019-02-12T05:21:34.228Z,87705.29
2019-02-12T05:24:01.123Z,87700.47
2019-02-12T05:26:27.917Z,87699.48
2019-02-12T05:28:54.689Z,87692.41
2019-02-12T05:31:21.627Z,87698.39
2019-02-12T05:33:48.416Z,87701.81
2019-02-12T05:36:15.212Z,87702.21
2019-02-12T05:38:42.108Z,87712.84
2019-02-12T05:41:11.177Z,87720.77
2019-02-12T05:43:37.459Z,87721.47
2019-02-12T05:46:04.503Z,87720.80
2019-02-12T05:48:31.318Z,87717.70
2019-02-12T05:50:58.193Z,87720.35
2019-02-12T05:53:25.055Z,87719.29
2019-02-12T05:55:51.862Z,87723.13
2019-02-12T05:58:18.628Z,87716.11
2019-02-12T06:00:45.576Z,87728.25
2019-02-12T06:03:12.389Z,87732.25
2019-02-12T06:05:39.182Z,87735.98
2019-02-12T06:08:06.152Z,87734.84
2019-02-12T06:10:32.953Z,87743.77
2019-02-12T06:12:59.748Z,87754.70
2019-02-12T06:15:26.597Z,87743.23
2019-02-12T06:17:53.370Z,87745.34
2019-02-12T06:20:20.154Z,87746.41
2019-02-12T06:22:47.020Z,87749.83
2019-02-12T06:25:14.054Z,87740.09
2019-02-12T06:27:40.948Z,87732.19
2019-02-12T06:30:09.276Z,87735.61
2019-02-12T06:32:36.060Z,87740.84
2019-02-12T06:35:05.356Z,87742.81
2019-02-12T06:37:32.206Z,87744.83
2019-02-12T06:39:58.993Z,87740.95
2019-02-12T06:42:25.879Z,87750.67
2019-02-12T06:44:52.721Z,87746.19
2019-02-12T06:47:19.513Z,87750.07
2019-02-12T06:49:46.306Z,87755.38
2019-02-12T06:52:18.502Z,87764.54
2019-02-12T06:54:45.279Z,87771.83
2019-02-12T06:57:12.105Z,87773.23
2019-02-12T06:59:38.960Z,87771.84
2019-02-12T07:03:01.920Z,87764.70
2019-02-12T07:05:28.830Z,87774.94
2019-02-12T07:08:43.732Z,87762.84
2019-02-12T07:11:30.960Z,87780.05
2019-02-12T07:14:22.707Z,87792.21
2019-02-12T07:17:19.559Z,87796.56
2019-02-12T07:20:09.709Z,87794.76
2019-02-12T07:23:11.031Z,87796.19
2019-02-12T07:25:57.913Z,87794.59
2019-02-12T07:29:11.541Z,87791.66
2019-02-12T07:32:13.690Z,87793.83
2019-02-12T07:35:07.352Z,87811.47
2019-02-12T07:38:03.228Z,87817.66
2019-02-12T07:41:01.364Z,87811.52
2019-02-12T07:44:05.688Z,87824.60
2019-02-12T07:47:14.377Z,87816.53
2019-02-12T07:49:49.588Z,87818.66
2019-02-12T07:52:50.523Z,87826.36
2019-02-12T07:56:03.703Z,87826.58
2019-02-12T07:59:00.419Z,87818.19
2019-02-12T08:01:53.293Z,87823.84
2019-02-12T08:04:34.513Z,87821.30
2019-02-12T08:07:38.830Z,87817.88
2019-02-12T08:10:52.127Z,87812.41
2019-02-12T08:14:06.481Z,87812.98
2019-02-12T08:17:03.224Z,87808.88
2019-02-12T08:19:56.669Z,87809.64
2019-02-12T08:22:40.962Z,87817.09
2019-02-12T08:25:18.875Z,87816.81
2019-02-12T08:28:12.617Z,87820.50
2019-02-12T08:31:01.704Z,87824.61
2019-02-12T08:34:06.292Z,87823.16
2019-02-12T08:36:52.973Z,87821.83
2019-02-12T08:39:41.732Z,87827.23
2019-02-12T08:42:47.491Z,87829.19
2019-02-12T08:49:08.545Z,87826.86
2019-02-12T08:51:52.814Z,87831.73
2019-02-12T08:54:33.347Z,87827.80
2019-02-12T08:57:34.406Z,87823.33
2019-02-12T09:00:53.491Z,87824.94
2019-02-12T09:03:57.526Z,87817.77
2019-02-12T09:06:50.402Z,87823.11
2019-02-12T09:09:50.211Z,87823.78
2019-02-12T09:13:05.372Z,87815.28
2019-02-12T09:15:52.725Z,87802.69
2019-02-12T09:18:46.254Z,87810.65
2019-02-12T09:21:50.532Z,87804.16
2019-02-12T09:24:45.469Z,87813.46
2019-02-12T09:27:20.493Z,87805.60
2019-02-12T09:30:04.508Z,87804.83
2019-02-12T09:33:04.179Z,87806.59
2019-02-12T09:35:58.447Z,87813.84
2019-02-12T09:39:07.208Z,87817.14
2019-02-12T09:41:48.322Z,87826.16
2019-02-12T09:44:38.827Z,87822.33
2019-02-12T09:47:41.673Z,87822.40
2019-02-12T09:50:20.299Z,87834.08
2019-02-12T09:53:07.566Z,87843.48
2019-02-12T09:55:52.160Z,87839.52
2019-02-12T09:58:38.772Z,87833.02
2019-02-12T10:01:32.318Z,87840.67
2019-02-12T10:04:35.053Z,87843.12
2019-02-12T10:07:26.657Z,87843.19
2019-02-12T10:10:01.612Z,87845.39
2019-02-12T10:12:33.957Z,87845.18
2019-02-12T10:15:32.000Z,87849.68
2019-02-12T10:18:15.948Z,87848.45
2019-02-12T10:21:05.811Z,87857.53
2019-02-12T10:24:18.953Z,87863.12
2019-02-12T10:26:42.686Z,87861.20
2019-02-12T10:29:59.029Z,87860.61
2019-02-12T10:32:25.188Z,87866.47
2019-02-12T10:34:52.022Z,87870.91
2019-02-12T10:37:18.951Z,87863.33
2019-02-12T10:39:45.717Z,87861.41
2019-02-12T10:42:12.512Z,87865.08
2019-02-12T10:44:39.341Z,87865.02
2019-02-12T10:47:06.119Z,87882.30
2019-02-12T10:49:32.911Z,87877.78
2019-02-12T10:51:59.835Z,87869.81
2019-02-12T10:54:28.161Z,87871.98
2019-02-12T10:56:55.196Z,87878.16
2019-02-12T10:59:22.144Z,87880.22
2019-02-12T11:01:48.936Z,87862.33
2019-02-12T11:04:15.723Z,87863.77
2019-02-12T11:06:42.562Z,87864.41
2019-02-12T11:09:09.345Z,87866.52
2019-02-12T11:11:36.145Z,87854.45
2019-02-12T11:14:02.986Z,87859.92
2019-02-12T11:16:29.776Z,87855.27
2019-02-12T11:18:56.557Z,87846.68
2019-02-12T11:21:23.388Z,87849.02
2019-02-12T11:23:50.187Z,87849.57
2019-02-12T11:26:16.990Z,87849.86
2019-02-12T11:28:43.990Z,87838.64
2019-02-12T11:31:10.805Z,87835.16
2019-02-12T11:33:37.674Z,87831.69
2019-02-12T11:36:04.602Z,87828.08
2019-02-12T11:38:31.512Z,87835.06
2019-02-12T11:40:58.299Z,87831.97
2019-02-12T11:43:25.139Z,87828.94
2019-02-12T11:45:51.930Z,87830.69
2019-02-12T11:48:18.726Z,87821.73
2019-02-12T11:50:45.597Z,87815.31
2019-02-12T11:53:12.369Z,87827.52
2019-02-12T11:55:39.136Z,87813.92
2019-02-12T11:58:06.063Z,87802.71
2019-02-12T12:00:32.835Z,87814.48
2019-02-12T12:02:59.638Z,87817.62
2019-02-12T12:05:26.579Z,87825.70
2019-02-12T12:07:53.367Z,87814.87
2019-02-12T12:10:20.152Z,87813.20
2019-02-12T12:12:47.061Z,87825.95
2019-02-12T12:15:14.754Z,87812.47
2019-02-12T12:17:41.537Z,87804.67
2019-02-12T12:20:13.767Z,87810.44
2019-02-12T12:22:40.597Z,87799.44
2019-02-12T12:25:09.769Z,87799.81
2019-02-12T12:27:36.705Z,87803.45
2019-02-12T12:30:13.329Z,87798.84
2019-02-12T12:32:40.213Z,87795.89
2019-02-12T12:35:09.222Z,87806.75
2019-02-12T12:37:35.984Z,87801.67
2019-02-12T12:40:07.103Z,87798.73
2019-02-12T12:42:33.894Z,87808.02
2019-02-12T12:45:00.669Z,87805.75
2019-02-12T12:47:27.593Z,87807.08
2019-02-12T12:49:54.389Z,87810.15
2019-02-12T12:52:21.190Z,87791.82
2019-02-12T12:54:48.015Z,87794.20
2019-02-12T12:57:14.784Z,87796.44
2019-02-12T12:59:41.571Z,87792.64
2019-02-12T13:02:08.425Z,87802.17
2019-02-12T13:04:35.192Z,87800.80
2019-02-12T13:07:01.993Z,87801.50
2019-02-12T13:09:28.906Z,87799.88
2019-02-12T13:11:55.697Z,87797.81
2019-02-12T13:14:22.479Z,87808.38
2019-02-12T13:16:49.374Z,87807.40
2019-02-12T13:19:16.150Z,87811.10
2019-02-12T13:21:42.994Z,87806.20
2019-02-12T13:24:09.854Z,87819.63
2019-02-12T13:26:36.631Z,87816.20
2019-02-12T13:29:03.424Z,87827.22
2019-02-12T13:31:34.436Z,87825.52
2019-02-12T13:34:01.216Z,87828.77
2019-02-12T13:36:28.007Z,87821.00
2019-02-12T13:38:54.847Z,87828.41
2019-02-12T13:41:21.694Z,87834.61
2019-02-12T13:43:48.481Z,87842.72
2019-02-12T13:46:15.329Z,87841.22
2019-02-12T13:48:42.122Z,87837.52
2019-02-12T13:51:08.927Z,87847.56
2019-02-12T13:53:38.312Z,87855.74
2019-02-12T13:56:05.083Z,87858.79
2019-02-12T13:58:31.884Z,87855.57
2019-02-12T14:00:58.769Z,87866.03
2019-02-12T14:03:25.568Z,87863.50
2019-02-12T14:05:52.384Z,87857.08
2019-02-12T14:08:19.423Z,87850.56
2019-02-12T14:10:46.181Z,87849.86
2019-02-12T14:13:12.967Z,87859.83
2019-02-12T14:15:39.897Z,87860.66
2019-02-12T14:18:06.691Z,87860.48
2019-02-12T14:20:33.465Z,87860.45
2019-02-12T14:23:00.480Z,87859.03
2019-02-12T14:25:27.248Z,87867.20
2019-02-12T14:27:54.045Z,87867.76
2019-02-12T14:30:21.902Z,87877.41
2019-02-12T14:32:48.732Z,87874.41
2019-02-12T14:35:15.517Z,87872.40
2019-02-12T14:37:42.452Z,87879.89
2019-02-12T14:40:11.341Z,87881.21
2019-02-12T14:42:38.146Z,87879.95
2019-02-12T14:45:15.138Z,87877.06
2019-02-12T14:47:41.922Z,87889.72
2019-02-12T14:50:13.705Z,87878.69
2019-02-12T14:52:40.527Z,87888.89
2019-02-12T14:55:07.304Z,87891.50
2019-02-12T14:57:34.103Z,87898.37
2019-02-12T15:00:01.020Z,87899.59
2019-02-12T15:02:27.815Z,87907.47
2019-02-12T15:05:00.387Z,87906.14
2019-02-12T15:07:23.365Z,87909.16
2019-02-12T15:09:50.163Z,87910.91
2019-02-12T15:12:16.966Z,87911.59
2019-02-12T15:14:43.896Z,87904.97
2019-02-12T15:17:10.842Z,87911.22
2019-02-12T15:19:37.638Z,87910.92
2019-02-12T15:22:04.492Z,87913.82
2019-02-12T15:24:31.301Z,87915.83
2019-02-12T15:26:58.075Z,87915.83
2019-02-12T15:29:24.936Z,87921.88
2019-02-12T15:31:51.730Z,87923.62
2019-02-12T15:34:18.582Z,87924.70
2019-02-12T15:36:45.509Z,87924.09
2019-02-12T15:39:12.351Z,87924.79
2019-02-12T15:41:39.102Z,87925.39
2019-02-12T15:44:05.970Z,87934.95
2019-02-12T15:46:32.752Z,87928.67
2019-02-12T15:48:59.534Z,87931.66
2019-02-12T15:51:26.381Z,87931.91
2019-02-12T15:53:53.279Z,87936.62
2019-02-12T15:56:20.190Z,87942.27
2019-02-12T15:58:47.536Z,87943.81
2019-02-12T16:01:14.357Z,87945.95
2019-02-12T16:03:41.143Z,87952.91
2019-02-12T16:06:08.000Z,87949.53
2019-02-12T16:08:34.802Z,87945.11
2019-02-12T16:11:01.577Z,87951.01
2019-02-12T16:13:28.501Z,87954.06
2019-02-12T16:15:55.294Z,87960.39
2019-02-12T16:18:22.997Z,87961.23
2019-02-12T16:20:50.769Z,87961.23
2019-02-12T16:23:17.543Z,87960.66
2019-02-12T16:25:44.347Z,87967.78
2019-02-12T16:28:11.202Z,87975.20
2019-02-12T16:30:37.994Z,87977.65
2019-02-12T16:33:04.787Z,87981.08
2019-02-12T16:35:31.710Z,87977.33
2019-02-12T16:37:58.494Z,87988.78
2019-02-12T16:40:25.271Z,87984.67
2019-02-12T16:42:52.196Z,87990.63
2019-02-12T16:45:48.738Z,87986.42
2019-02-12T16:48:16.058Z,87996.29
2019-02-12T16:50:42.840Z,87998.25
2019-02-12T16:53:09.632Z,87996.87
2019-02-12T16:55:36.488Z,88006.04
2019-02-12T16:58:03.588Z,87991.69
2019-02-12T17:00:30.397Z,88006.73
2019-02-12T17:02:57.258Z,88007.47
2019-02-12T17:05:24.434Z,88011.81
2019-02-12T17:08:01.747Z,88010.89
2019-02-12T17:10:28.498Z,88032.47
2019-02-12T17:12:55.277Z,88041.22
2019-02-12T17:15:22.128Z,88033.47
2019-02-12T17:17:48.907Z,88035.31
2019-02-12T17:20:21.948Z,88043.06
2019-02-12T17:22:48.827Z,88041.29
2019-02-12T17:25:15.599Z,88042.23
2019-02-12T17:27:42.382Z,88044.51
2019-02-12T17:30:13.556Z,88047.80
2019-02-12T17:32:40.340Z,88043.27
2019-02-12T17:35:07.927Z,88050.09
2019-02-12T17:37:41.290Z,88054.23
2019-02-12T17:40:12.098Z,88046.80
2019-02-12T17:42:38.915Z,88060.19
2019-02-12T17:45:10.587Z,88045.31
2019-02-12T17:47:37.542Z,88048.89
2019-02-12T17:50:07.688Z,88050.19
2019-02-12T17:52:34.851Z,88047.95
2019-02-12T17:55:01.718Z,88043.59
2019-02-12T17:57:28.812Z,88053.49
2019-02-12T17:59:55.972Z,88051.63
2019-02-12T18:02:23.188Z,88055.09
2019-02-12T18:04:50.397Z,88057.02
2019-02-12T18:07:17.497Z,88056.66
2019-02-12T18:09:44.743Z,88061.31
2019-02-12T18:12:11.955Z,88059.85
2019-02-12T18:14:39.313Z,88074.16
2019-02-12T18:17:06.384Z,88063.89
2019-02-12T18:19:33.579Z,88063.94
2019-02-12T18:22:00.807Z,88071.23
2019-02-12T18:24:27.916Z,88071.39
2019-02-12T18:26:55.116Z,88070.19
2019-02-12T18:29:22.297Z,88067.73
2019-02-12T18:31:49.394Z,88071.45
2019-02-12T18:34:16.487Z,88068.82
2019-02-12T18:36:43.813Z,88072.70
2019-02-12T18:39:11.201Z,88085.91
2019-02-12T18:41:38.290Z,88084.31
2019-02-12T18:44:05.689Z,88089.87
2019-02-12T18:46:32.796Z,88097.21
2019-02-12T18:48:59.807Z,88098.60
2019-02-12T18:51:27.036Z,88099.03
2019-02-12T18:53:54.235Z,88110.03
2019-02-12T18:56:21.440Z,88098.17
2019-02-12T18:58:48.592Z,88105.21
2019-02-12T19:01:15.693Z,88112.84
2019-02-12T19:03:42.789Z,88111.19
2019-02-12T19:06:09.960Z,88103.03
2019-02-12T19:08:37.055Z,88104.67
2019-02-12T19:11:04.063Z,88119.79
2019-02-12T19:13:31.278Z,88100.39
2019-02-12T19:15:58.487Z,88108.27
2019-02-12T19:18:25.691Z,88127.30
2019-02-12T19:20:52.975Z,88133.84
2019-02-12T19:23:20.068Z,88132.28
2019-02-12T19:25:47.187Z,88136.27
2019-02-12T19:28:14.358Z,88141.74
2019-02-12T19:30:41.469Z,88145.66
2019-02-12T19:33:08.570Z,88145.06
2019-02-12T19:35:35.825Z,88161.61
2019-02-12T19:38:03.034Z,88155.28
2019-02-12T19:40:33.531Z,88161.53
2019-02-12T19:43:00.769Z,88155.65
2019-02-12T19:45:27.756Z,88171.42
2019-02-12T19:47:54.963Z,88163.66
2019-02-12T19:50:22.301Z,88170.26
2019-02-12T19:52:49.394Z,88178.82
2019-02-12T19:55:16.609Z,88193.30
2019-02-12T19:57:43.959Z,88189.42
2019-02-12T20:00:14.262Z,88191.29
2019-02-12T20:02:41.360Z,88197.59
2019-02-12T20:05:10.548Z,88209.39
2019-02-12T20:07:39.143Z,88214.33
2019-02-12T20:10:09.238Z,88205.34
2019-02-12T20:12:36.929Z,88212.17
2019-02-12T20:15:10.953Z,88214.79
2019-02-12T20:17:41.913Z,88211.43
2019-02-12T20:20:11.027Z,88215.59
2019-02-12T20:22:41.081Z,88223.39
2019-02-12T20:25:10.425Z,88227.05
2019-02-12T20:27:37.528Z,88229.46
2019-02-12T20:30:16.569Z,88231.55
2019-02-12T20:32:43.567Z,88234.42
2019-02-12T20:35:12.881Z,88241.13
2019-02-12T20:37:39.933Z,88254.61
2019-02-12T20:40:10.141Z,88252.67
2019-02-12T20:42:37.289Z,88247.14
2019-02-12T20:45:09.472Z,88251.55
2019-02-12T20:47:36.357Z,88251.56
2019-02-12T20:50:07.757Z,88259.88
2019-02-12T20:52:34.797Z,88265.07
2019-02-12T20:55:01.907Z,88263.53
2019-02-12T20:57:28.887Z,88270.53
2019-02-12T20:59:56.026Z,88274.66
2019-02-12T21:02:23.236Z,88281.08
2019-02-12T21:04:50.429Z,88285.45
2019-02-12T21:07:17.480Z,88287.09
2019-02-12T21:09:44.438Z,88290.98
2019-02-12T21:12:11.418Z,88288.94
2019-02-12T21:14:38.461Z,88293.82
2019-02-12T21:17:05.546Z,88289.97
2019-02-12T21:19:32.533Z,88296.68
2019-02-12T21:21:59.561Z,88287.88
2019-02-12T21:24:26.543Z,88298.72
2019-02-12T21:26:53.378Z,88294.61
2019-02-12T21:29:20.398Z,88298.50
2019-02-12T21:31:47.244Z,88307.80
2019-02-12T21:34:14.084Z,88299.60
2019-02-12T21:36:41.059Z,88306.08
2019-02-12T21:39:07.884Z,88312.32
2019-02-12T21:41:34.693Z,88309.75
2019-02-12T21:44:01.684Z,88309.75
2019-02-12T21:46:28.485Z,88310.27
2019-02-12T21:48:55.308Z,88310.81
2019-02-12T21:51:22.172Z,88317.05
2019-02-12T21:53:48.961Z,88320.73
2019-02-12T21:56:15.747Z,88321.76
2019-02-12T21:58:42.594Z,88327.18
2019-02-12T22:01:10.778Z,88323.59
2019-02-12T22:03:37.576Z,88335.72
2019-02-12T22:06:04.494Z,88335.23
2019-02-12T22:08:31.279Z,88331.87
2019-02-12T22:10:58.055Z,88340.37
2019-02-12T22:13:24.984Z,88341.16
2019-02-12T22:15:51.766Z,88338.07
2019-02-12T22:18:18.556Z,88348.89
2019-02-12T22:20:45.470Z,88346.55
2019-02-12T22:23:12.263Z,88347.08
2019-02-12T22:25:39.053Z,88364.07
2019-02-12T22:28:05.981Z,88361.77
2019-02-12T22:30:32.784Z,88365.92
2019-02-12T22:32:59.566Z,88369.03
2019-02-12T22:35:26.500Z,88378.83
2019-02-12T22:37:53.267Z,88377.55
2019-02-12T22:40:20.048Z,88376.52
2019-02-12T22:42:46.910Z,88381.17
2019-02-12T22:45:22.231Z,88379.11
2019-02-12T22:47:49.164Z,88381.95
2019-02-12T22:50:15.955Z,88382.20
2019-02-12T22:52:42.740Z,88381.46
2019-02-12T22:55:09.867Z,88386.86
2019-02-12T22:57:36.642Z,88390.99
2019-02-12T23:00:25.528Z,88397.70
2019-02-12T23:02:52.316Z,88402.59
2019-02-12T23:05:19.103Z,88401.07
2019-02-12T23:07:45.969Z,88398.73
2019-02-12T23:10:12.744Z,88400.28
2019-02-12T23:12:39.536Z,88398.73
2019-02-12T23:15:07.215Z,88402.88
2019-02-12T23:17:33.999Z,88408.80
2019-02-12T23:20:00.788Z,88406.23
2019-02-12T23:22:27.643Z,88418.33
2019-02-12T23:24:54.409Z,88415.52
2019-02-12T23:27:21.202Z,88412.44
2019-02-12T23:29:48.044Z,88410.91
2019-02-12T23:32:14.823Z,88420.20
2019-02-12T23:34:41.609Z,88411.70
2019-02-12T23:37:08.463Z,88421.48
2019-02-12T23:39:35.234Z,88420.20
2019-02-12T23:42:02.020Z,88420.70
2019-02-12T23:44:29.012Z,88419.92
2019-02-12T23:46:55.790Z,88421.95
2019-02-12T23:49:22.579Z,88420.67
2019-02-12T23:51:49.435Z,88426.36
2019-02-12T23:54:16.231Z,88424.56
2019-02-12T23:56:43.010Z,88419.92
2019-02-12T23:59:09.931Z,88433.58
